Time;durP1;ratioP1;P1;durP2;ratioP2;P2;SDS_P1;SDS_P2;PMS_P1;PMS_P2;Temp;Humidity;BMP_temperature;BMP_pressure;BME280_temperature;BME280_humidity;BME280_pressure;Samples;Min_cycle;Max_cycle;Signal;HPM_P1;HPM_P2
2022/03/16 00:01:37;;;;;;;36.25;17.90;;;3.50;99.90;;;;;;6211466;23;20447;-78
2022/03/16 00:04:03;;;;;;;33.83;17.52;;;3.50;99.90;;;;;;6213240;23;20013;-79
2022/03/16 00:06:28;;;;;;;33.38;16.17;;;3.40;99.90;;;;;;6186893;23;20012;-78
2022/03/16 00:08:54;;;;;;;33.58;15.82;;;3.40;99.90;;;;;;6213729;23;20012;-78
2022/03/16 00:11:19;;;;;;;34.72;16.00;;;3.30;99.90;;;;;;6211482;23;20036;-78
2022/03/16 00:13:45;;;;;;;33.90;15.18;;;3.30;99.90;;;;;;6211560;23;20012;-79
2022/03/16 00:16:11;;;;;;;33.65;15.98;;;3.30;99.90;;;;;;6211757;23;20021;-78
2022/03/16 00:18:36;;;;;;;34.53;14.95;;;3.30;99.90;;;;;;6211701;23;20013;-78
2022/03/16 00:21:02;;;;;;;27.48;13.70;;;3.20;99.90;;;;;;6211716;23;20113;-79
2022/03/16 00:23:27;;;;;;;26.88;14.18;;;3.20;99.90;;;;;;6211499;23;20468;-78
2022/03/16 00:25:53;;;;;;;28.25;13.02;;;3.20;99.90;;;;;;6186729;23;20044;-79
2022/03/16 00:28:19;;;;;;;25.00;13.05;;;3.10;99.90;;;;;;6211500;23;20067;-78
2022/03/16 00:30:44;;;;;;;28.13;14.05;;;3.10;99.90;;;;;;6211319;23;20341;-78
2022/03/16 00:33:11;;;;;;;28.45;13.38;;;3.00;99.90;;;;;;6211465;23;20023;-79
2022/03/16 00:35:37;;;;;;;27.92;13.30;;;3.00;99.90;;;;;;6211572;23;20027;-78
2022/03/16 00:38:03;;;;;;;27.45;14.00;;;2.90;99.90;;;;;;6211090;23;20020;-78
2022/03/16 00:40:29;;;;;;;27.80;12.82;;;2.90;99.90;;;;;;6211525;23;20016;-79
2022/03/16 00:42:54;;;;;;;24.17;11.90;;;2.90;99.90;;;;;;6190328;23;20012;-79
2022/03/16 00:45:20;;;;;;;22.65;11.80;;;2.90;99.90;;;;;;6214023;23;20016;-79
2022/03/16 00:47:46;;;;;;;21.83;11.88;;;2.90;99.90;;;;;;6214321;23;20023;-79
2022/03/16 00:50:11;;;;;;;22.70;13.45;;;2.90;99.90;;;;;;6213916;23;20091;-79
2022/03/16 00:52:37;;;;;;;31.10;14.77;;;2.90;99.90;;;;;;6215104;23;20013;-79
2022/03/16 00:55:03;;;;;;;26.42;14.80;;;2.90;99.90;;;;;;6214579;23;20024;-79
2022/03/16 00:57:31;;;;;;;30.15;15.50;;;2.90;99.90;;;;;;6216326;23;20087;-79
2022/03/16 00:59:58;;;;;;;46.10;21.50;;;2.90;99.90;;;;;;6216702;23;20088;-79
2022/03/16 01:02:24;;;;;;;40.42;17.35;;;2.90;99.90;;;;;;6216780;23;20037;-79
2022/03/16 01:04:49;;;;;;;48.92;20.17;;;3.00;99.90;;;;;;6218855;23;20086;-79
2022/03/16 01:07:15;;;;;;;64.20;26.75;;;3.10;99.90;;;;;;6217033;23;20519;-79
2022/03/16 01:09:40;;;;;;;55.35;23.15;;;3.20;99.90;;;;;;6215036;23;20013;-79
2022/03/16 01:12:08;;;;;;;46.95;19.77;;;3.40;99.90;;;;;;6218206;23;20039;-79
2022/03/16 01:14:34;;;;;;;63.53;24.08;;;3.50;99.90;;;;;;6193176;23;20016;-79
2022/03/16 01:16:59;;;;;;;51.83;22.27;;;3.50;99.90;;;;;;6216885;23;20048;-79
2022/03/16 01:19:25;;;;;;;45.92;21.48;;;3.60;99.90;;;;;;6217783;23;20040;-79
2022/03/16 01:21:50;;;;;;;50.72;21.70;;;3.60;99.90;;;;;;6217217;23;20028;-79
2022/03/16 01:24:16;;;;;;;54.95;21.40;;;3.60;99.90;;;;;;6218030;23;20009;-79
2022/03/16 01:26:42;;;;;;;49.63;21.75;;;3.60;99.90;;;;;;6215379;23;20055;-79
2022/03/16 01:29:07;;;;;;;51.83;22.73;;;3.60;99.90;;;;;;6213760;23;20514;-79
2022/03/16 01:31:34;;;;;;;42.55;20.50;;;3.60;99.90;;;;;;6212878;23;20040;-79
2022/03/16 01:34:00;;;;;;;49.42;21.73;;;3.50;99.90;;;;;;6213556;23;20021;-79
2022/03/16 01:36:25;;;;;;;48.78;21.63;;;3.50;99.90;;;;;;6214850;23;20084;-79
2022/03/16 01:38:51;;;;;;;44.25;21.67;;;3.50;99.90;;;;;;6212781;23;20016;-79
2022/03/16 01:41:17;;;;;;;49.30;21.55;;;3.40;99.90;;;;;;6212100;23;20464;-79
2022/03/16 01:43:42;;;;;;;44.90;20.45;;;3.40;99.90;;;;;;6212103;23;20083;-79
2022/03/16 01:46:08;;;;;;;46.78;21.90;;;3.40;99.90;;;;;;6212372;23;20481;-79
2022/03/16 01:48:34;;;;;;;48.35;20.10;;;3.40;99.90;;;;;;6213339;23;20092;-79
2022/03/16 01:51:00;;;;;;;49.28;18.70;;;3.40;99.90;;;;;;6214472;23;20012;-79
2022/03/16 01:53:26;;;;;;;57.90;20.45;;;3.30;99.90;;;;;;6214173;23;20468;-79
2022/03/16 01:55:52;;;;;;;45.83;19.88;;;3.20;99.90;;;;;;6214469;23;20350;-79
2022/03/16 01:58:18;;;;;;;165.85;27.63;;;3.10;99.90;;;;;;6189377;23;20092;-79
2022/03/16 02:00:44;;;;;;;107.97;23.73;;;3.10;99.90;;;;;;6213818;23;20434;-79
2022/03/16 02:03:09;;;;;;;103.05;22.27;;;3.00;99.90;;;;;;6214437;23;20013;-79
2022/03/16 02:05:39;;;;;;;42.58;19.23;;;2.90;99.90;;;;;;6214360;23;20469;-79
2022/03/16 02:08:07;;;;;;;48.92;19.73;;;2.90;99.90;;;;;;6214295;23;20020;-79
2022/03/16 02:10:34;;;;;;;51.47;18.65;;;2.80;99.90;;;;;;6213856;23;20009;-79
2022/03/16 02:13:00;;;;;;;42.63;19.20;;;2.80;99.90;;;;;;6214023;23;20063;-79
2022/03/16 02:15:26;;;;;;;42.92;18.08;;;2.70;99.90;;;;;;6213640;23;20092;-79
2022/03/16 02:17:54;;;;;;;44.85;18.27;;;2.60;99.90;;;;;;6213961;23;20067;-79
2022/03/16 02:20:21;;;;;;;32.92;16.35;;;2.70;99.90;;;;;;6213474;23;20021;-79
2022/03/16 02:22:53;;;;;;;47.72;16.85;;;2.60;99.90;;;;;;6213745;23;20446;-79
2022/03/16 02:25:19;;;;;;;173.00;26.17;;;2.60;99.90;;;;;;6214720;23;20024;-79
2022/03/16 02:27:44;;;;;;;81.85;19.67;;;2.60;99.90;;;;;;6216158;23;20017;-80
2022/03/16 02:30:11;;;;;;;34.08;17.95;;;2.60;99.90;;;;;;6217631;23;20020;-80
2022/03/16 02:32:36;;;;;;;40.78;18.73;;;2.60;99.90;;;;;;6217258;23;20013;-80
2022/03/16 02:35:02;;;;;;;260.05;37.22;;;2.60;99.90;;;;;;6218371;23;20020;-80
2022/03/16 02:37:28;;;;;;;238.55;31.80;;;2.60;99.90;;;;;;6217665;23;20019;-80
2022/03/16 02:39:55;;;;;;;42.75;18.55;;;2.50;99.90;;;;;;6217335;23;20008;-80
2022/03/16 02:42:21;;;;;;;46.78;18.30;;;2.50;99.90;;;;;;6218365;23;20016;-80
2022/03/16 02:44:47;;;;;;;77.78;19.90;;;2.40;99.90;;;;;;6219637;23;20012;-80
2022/03/16 02:47:12;;;;;;;154.57;24.52;;;2.40;99.90;;;;;;6218077;23;20131;-80
2022/03/16 02:49:38;;;;;;;31.92;15.82;;;2.40;99.90;;;;;;6217820;23;20040;-80
2022/03/16 02:52:08;;;;;;;33.22;16.80;;;2.30;99.90;;;;;;6218923;23;20024;-80
2022/03/16 02:54:33;;;;;;;34.28;16.42;;;2.30;99.90;;;;;;6218847;23;20012;-80
2022/03/16 02:56:59;;;;;;;30.20;16.45;;;2.30;99.90;;;;;;6218406;23;20021;-80
2022/03/16 02:59:24;;;;;;;38.13;16.80;;;2.30;99.90;;;;;;6216913;23;20265;-80
2022/03/16 03:01:50;;;;;;;41.70;16.95;;;2.30;99.90;;;;;;6218329;23;20087;-80
2022/03/16 03:04:15;;;;;;;30.67;16.73;;;2.30;99.90;;;;;;6218826;23;20035;-80
2022/03/16 03:06:41;;;;;;;271.10;32.67;;;2.30;99.90;;;;;;6218815;23;20362;-80
2022/03/16 03:09:06;;;;;;;68.03;16.15;;;2.20;99.90;;;;;;6219625;23;20012;-80
2022/03/16 03:11:32;;;;;;;156.35;23.23;;;2.20;99.90;;;;;;6194395;23;20024;-80
2022/03/16 03:13:57;;;;;;;188.52;24.08;;;2.10;99.90;;;;;;6219536;23;20350;-80
2022/03/16 03:16:23;;;;;;;74.93;15.43;;;2.00;99.90;;;;;;6219782;23;20051;-80
2022/03/16 03:18:48;;;;;;;22.08;12.90;;;1.80;99.90;;;;;;6219652;23;20012;-80
2022/03/16 03:21:14;;;;;;;197.85;29.83;;;1.90;99.90;;;;;;6219897;23;20012;-80
2022/03/16 03:23:40;;;;;;;148.52;22.40;;;1.80;99.90;;;;;;6219432;23;20013;-80
2022/03/16 03:26:05;;;;;;;83.72;17.30;;;1.80;99.90;;;;;;6217604;23;20017;-77
2022/03/16 03:28:31;;;;;;;120.10;23.02;;;1.80;99.90;;;;;;6212992;23;20017;-78
2022/03/16 03:30:56;;;;;;;77.60;15.02;;;1.80;99.90;;;;;;6212977;23;20012;-78
2022/03/16 03:33:22;;;;;;;184.98;26.08;;;1.70;99.90;;;;;;6212934;23;20536;-77
2022/03/16 03:35:49;;;;;;;64.60;13.52;;;1.70;99.90;;;;;;6212675;23;20013;-77
2022/03/16 03:38:15;;;;;;;115.65;21.70;;;1.60;99.90;;;;;;6212769;23;20064;-77
2022/03/16 03:40:40;;;;;;;73.15;14.27;;;1.60;99.90;;;;;;6212146;23;20350;-77
2022/03/16 03:43:06;;;;;;;98.22;21.13;;;1.60;99.90;;;;;;6212519;23;20088;-77
2022/03/16 03:45:31;;;;;;;48.53;13.32;;;1.60;99.90;;;;;;6212250;23;20025;-77
2022/03/16 03:47:57;;;;;;;236.80;33.03;;;1.60;99.90;;;;;;6212274;23;20047;-77
2022/03/16 03:50:23;;;;;;;85.00;15.80;;;1.60;99.90;;;;;;6214423;23;20024;-78
2022/03/16 03:52:49;;;;;;;73.65;17.48;;;1.60;99.90;;;;;;6215013;23;20350;-79
2022/03/16 03:55:14;;;;;;;82.10;16.27;;;1.60;99.90;;;;;;6214522;23;20012;-78
2022/03/16 03:57:40;;;;;;;168.35;23.67;;;1.60;99.90;;;;;;6215132;23;20012;-78
2022/03/16 04:00:06;;;;;;;38.67;14.77;;;1.70;99.90;;;;;;6214830;23;20084;-78
2022/03/16 04:02:32;;;;;;;64.70;16.33;;;1.70;99.90;;;;;;6214946;23;20013;-78
2022/03/16 04:04:57;;;;;;;48.78;14.70;;;1.70;99.90;;;;;;6189305;23;20020;-79
2022/03/16 04:07:23;;;;;;;32.13;12.30;;;1.60;99.90;;;;;;6214954;23;20438;-79
2022/03/16 04:09:50;;;;;;;87.30;18.30;;;1.60;99.90;;;;;;6215002;23;20012;-79
2022/03/16 04:12:17;;;;;;;110.10;16.73;;;1.50;99.90;;;;;;6215630;23;20027;-79
2022/03/16 04:14:43;;;;;;;41.70;15.73;;;1.40;99.90;;;;;;6214804;23;20349;-79
2022/03/16 04:17:08;;;;;;;93.60;18.05;;;1.30;99.90;;;;;;6189979;23;20051;-79
2022/03/16 04:19:34;;;;;;;88.80;15.60;;;1.30;99.90;;;;;;6214638;23;20016;-78
2022/03/16 04:21:59;;;;;;;114.70;18.77;;;1.30;99.90;;;;;;6215070;23;20028;-78
2022/03/16 04:24:25;;;;;;;31.75;14.20;;;1.30;99.90;;;;;;6214295;23;20013;-78
2022/03/16 04:26:50;;;;;;;30.77;15.43;;;1.30;99.90;;;;;;6215212;23;20017;-78
2022/03/16 04:29:16;;;;;;;127.13;22.98;;;1.50;99.90;;;;;;6189636;23;20040;-79
2022/03/16 04:31:41;;;;;;;133.73;24.50;;;1.50;99.90;;;;;;6214647;23;20028;-79
2022/03/16 04:34:07;;;;;;;56.83;16.23;;;1.50;99.90;;;;;;6214954;23;20074;-79
2022/03/16 04:36:33;;;;;;;28.58;15.23;;;1.40;99.90;;;;;;6215347;23;20044;-79
2022/03/16 04:38:58;;;;;;;38.88;16.90;;;1.50;99.90;;;;;;6215045;23;20044;-79
2022/03/16 04:41:24;;;;;;;31.45;14.27;;;1.50;99.90;;;;;;6214927;23;20012;-79
2022/03/16 04:43:49;;;;;;;34.38;14.82;;;1.50;99.90;;;;;;6215150;23;20013;-79
2022/03/16 04:46:15;;;;;;;30.67;14.68;;;1.50;99.90;;;;;;6215757;23;20017;-79
2022/03/16 04:48:41;;;;;;;23.90;14.10;;;1.40;99.90;;;;;;6215712;23;20514;-79
2022/03/16 04:51:06;;;;;;;24.75;13.60;;;1.40;99.90;;;;;;6215100;23;20024;-79
2022/03/16 04:53:32;;;;;;;24.60;13.90;;;1.40;99.90;;;;;;6216727;23;20099;-79
2022/03/16 04:55:57;;;;;;;25.60;14.02;;;1.40;99.90;;;;;;6214827;23;20020;-79
2022/03/16 04:58:23;;;;;;;76.60;17.45;;;1.50;99.90;;;;;;6215027;23;20022;-79
2022/03/16 05:00:49;;;;;;;34.10;15.40;;;1.40;99.90;;;;;;6214632;23;20017;-79
2022/03/16 05:03:14;;;;;;;30.23;14.65;;;1.50;99.90;;;;;;6214858;23;20022;-79
2022/03/16 05:05:40;;;;;;;106.13;20.90;;;1.50;99.90;;;;;;6215413;23;20512;-79
2022/03/16 05:08:05;;;;;;;32.08;15.18;;;1.40;99.90;;;;;;6215598;23;20008;-79
2022/03/16 05:10:31;;;;;;;28.48;14.13;;;1.40;99.90;;;;;;6214823;23;20026;-79
2022/03/16 05:12:57;;;;;;;28.02;14.18;;;1.40;99.90;;;;;;6191207;23;20023;-79
2022/03/16 05:15:22;;;;;;;37.20;14.13;;;1.30;99.90;;;;;;6216085;23;20017;-79
2022/03/16 05:17:48;;;;;;;22.25;13.13;;;1.20;99.90;;;;;;6215778;23;20016;-79
2022/03/16 05:20:16;;;;;;;24.25;13.43;;;1.20;99.90;;;;;;6214848;23;20016;-79
2022/03/16 05:22:46;;;;;;;21.45;12.90;;;1.20;99.90;;;;;;6215789;23;20028;-79
2022/03/16 05:25:14;;;;;;;27.58;14.55;;;1.20;99.90;;;;;;6217893;23;20023;-79
2022/03/16 05:27:40;;;;;;;32.40;17.20;;;1.20;99.90;;;;;;6218025;23;20016;-79
2022/03/16 05:30:08;;;;;;;31.05;15.98;;;1.20;99.90;;;;;;6217693;23;20027;-79
2022/03/16 05:32:34;;;;;;;34.83;16.92;;;1.40;99.90;;;;;;6217307;23;20083;-79
2022/03/16 05:35:00;;;;;;;27.00;13.77;;;1.50;99.90;;;;;;6217098;23;20079;-79
2022/03/16 05:37:26;;;;;;;33.53;17.05;;;1.50;99.90;;;;;;6217217;23;20009;-79
2022/03/16 05:39:52;;;;;;;27.63;15.77;;;1.50;99.90;;;;;;6217352;23;20020;-79
2022/03/16 05:42:18;;;;;;;23.35;14.05;;;1.60;99.90;;;;;;6217339;23;20016;-79
2022/03/16 05:44:44;;;;;;;32.72;15.80;;;1.60;99.90;;;;;;6223691;23;20008;-80
2022/03/16 05:47:11;;;;;;;31.73;16.27;;;1.60;99.90;;;;;;6224943;23;20021;-80
2022/03/16 05:49:37;;;;;;;30.92;17.33;;;1.60;99.90;;;;;;6198266;23;20019;-80
2022/03/16 05:52:03;;;;;;;32.90;16.52;;;1.70;99.90;;;;;;6222572;23;20009;-78
2022/03/16 05:54:29;;;;;;;28.35;15.18;;;1.70;99.90;;;;;;6213157;23;20021;-78
2022/03/16 05:56:54;;;;;;;28.73;15.55;;;1.70;99.90;;;;;;6213091;23;20012;-79
2022/03/16 05:59:20;;;;;;;34.50;15.60;;;1.70;99.90;;;;;;6213093;23;20024;-78
2022/03/16 06:01:45;;;;;;;26.77;15.68;;;1.80;99.90;;;;;;6212828;23;20026;-78
2022/03/16 06:04:11;;;;;;;30.20;15.30;;;1.90;99.90;;;;;;6212852;23;20442;-78
2022/03/16 06:06:36;;;;;;;27.75;16.70;;;1.90;99.90;;;;;;6213305;23;20070;-79
2022/03/16 06:09:03;;;;;;;32.17;16.85;;;2.00;99.90;;;;;;6214414;23;20017;-78
2022/03/16 06:11:29;;;;;;;33.90;17.52;;;2.00;99.90;;;;;;6212591;23;20396;-79
2022/03/16 06:13:55;;;;;;;26.15;14.93;;;2.10;99.90;;;;;;6212839;23;20044;-78
2022/03/16 06:16:20;;;;;;;28.08;15.70;;;2.20;99.90;;;;;;6212942;23;20020;-78
2022/03/16 06:18:46;;;;;;;37.58;15.70;;;2.20;99.90;;;;;;6214822;23;20139;-78
2022/03/16 06:21:11;;;;;;;32.22;15.93;;;2.20;99.90;;;;;;6212593;23;20495;-79
2022/03/16 06:23:37;;;;;;;34.10;17.40;;;2.20;99.90;;;;;;6212579;23;20087;-79
2022/03/16 06:26:05;;;;;;;30.65;15.63;;;2.30;99.90;;;;;;6212891;23;20021;-78
2022/03/16 06:28:31;;;;;;;38.22;17.38;;;2.40;99.90;;;;;;6217192;23;20009;-81
2022/03/16 06:30:57;;;;;;;33.90;16.98;;;2.50;99.90;;;;;;6222973;23;20013;-81
2022/03/16 06:33:22;;;;;;;29.88;15.63;;;2.60;99.90;;;;;;6220906;23;20098;-80
2022/03/16 06:35:48;;;;;;;38.42;19.50;;;2.60;99.90;;;;;;6236311;23;20028;-83
2022/03/16 06:38:13;;;;;;;41.80;19.85;;;2.70;99.90;;;;;;6208702;23;20047;-82
2022/03/16 06:40:39;;;;;;;44.58;20.58;;;2.70;99.90;;;;;;6233885;23;20016;-84
2022/03/16 06:43:05;;;;;;;43.65;21.02;;;2.80;99.90;;;;;;6232457;23;20009;-84
2022/03/16 06:45:30;;;;;;;38.10;19.58;;;2.80;99.90;;;;;;6204221;23;20020;-84
2022/03/16 06:47:58;;;;;;;32.05;17.98;;;2.80;99.90;;;;;;6225526;23;20013;-84
2022/03/16 06:50:24;;;;;;;35.17;17.73;;;2.90;99.90;;;;;;6219739;23;20012;-84
2022/03/16 06:52:52;;;;;;;44.10;20.58;;;2.90;99.90;;;;;;6198588;23;20036;-84
2022/03/16 06:55:17;;;;;;;39.60;19.30;;;3.00;99.90;;;;;;6224557;23;20016;-83
2022/03/16 06:57:43;;;;;;;38.88;19.45;;;3.10;99.90;;;;;;6198930;23;20009;-84
2022/03/16 07:00:12;;;;;;;39.88;20.45;;;3.20;99.90;;;;;;6222884;23;20009;-84
2022/03/16 07:03:07;;;;;;;43.88;22.10;;;3.30;99.90;;;;;;6223069;23;20012;-85
2022/03/16 07:05:35;;;;;;;46.10;21.73;;;3.40;99.90;;;;;;6225791;23;20342;-82
2022/03/16 07:08:07;;;;;;;42.90;22.92;;;3.50;99.90;;;;;;6219139;23;20016;-82
2022/03/16 07:10:33;;;;;;;48.58;22.33;;;3.60;99.90;;;;;;6221569;23;20386;-82
2022/03/16 07:12:59;;;;;;;38.60;21.67;;;3.70;99.90;;;;;;6225810;23;20453;-82
2022/03/16 07:15:25;;;;;;;44.50;21.40;;;3.90;99.90;;;;;;6224358;23;20117;-82
2022/03/16 07:17:50;;;;;;;45.67;23.73;;;4.00;99.90;;;;;;6225284;23;20453;-82
2022/03/16 07:20:16;;;;;;;44.60;23.30;;;4.20;99.90;;;;;;6224855;23;20024;-81
2022/03/16 07:22:42;;;;;;;43.60;23.35;;;4.40;99.90;;;;;;6225582;23;20024;-82
2022/03/16 07:25:11;;;;;;;39.53;21.92;;;4.70;99.90;;;;;;6225221;23;20029;-81
2022/03/16 07:27:38;;;;;;;42.90;23.90;;;5.10;99.90;;;;;;6224804;23;20009;-82
2022/03/16 07:30:08;;;;;;;44.75;22.35;;;5.40;99.90;;;;;;6224080;23;20009;-82
2022/03/16 07:32:39;;;;;;;134.60;69.05;;;5.50;99.90;;;;;;6196692;23;20414;-80
2022/03/16 07:35:05;;;;;;;46.20;21.42;;;5.70;99.90;;;;;;6223435;23;20012;-82
2022/03/16 07:37:31;;;;;;;41.53;22.33;;;5.80;99.90;;;;;;6222267;23;20086;-82
2022/03/16 07:39:56;;;;;;;37.55;20.95;;;6.00;99.90;;;;;;6225101;23;20449;-82
2022/03/16 07:42:22;;;;;;;38.67;18.98;;;6.10;99.90;;;;;;6199969;23;20020;-82
2022/03/16 07:44:49;;;;;;;35.78;19.13;;;6.30;99.90;;;;;;6225808;23;20027;-83
2022/03/16 07:47:14;;;;;;;35.40;17.83;;;6.50;99.90;;;;;;6225136;23;20016;-82
2022/03/16 07:49:40;;;;;;;33.38;18.90;;;6.60;99.90;;;;;;6227051;23;20008;-83
2022/03/16 07:52:06;;;;;;;28.92;17.67;;;6.60;99.90;;;;;;6200379;23;20020;-82
2022/03/16 07:54:31;;;;;;;33.78;19.27;;;6.60;99.90;;;;;;6224771;23;20044;-82
2022/03/16 07:56:57;;;;;;;33.03;18.35;;;6.90;99.90;;;;;;6223600;23;20024;-82
2022/03/16 07:59:22;;;;;;;35.78;20.35;;;7.10;99.90;;;;;;6222482;23;20012;-83
2022/03/16 08:01:48;;;;;;;37.72;18.38;;;7.40;99.90;;;;;;6221522;23;20091;-82
2022/03/16 08:04:15;;;;;;;33.90;18.77;;;7.60;99.90;;;;;;6195007;23;20020;-82
2022/03/16 08:06:41;;;;;;;30.92;17.33;;;7.80;99.90;;;;;;6221150;23;20043;-81
2022/03/16 08:09:06;;;;;;;31.90;18.02;;;8.00;99.90;;;;;;6225076;23;20017;-82
2022/03/16 08:11:32;;;;;;;37.45;17.27;;;8.30;99.90;;;;;;6198632;23;20500;-82
2022/03/16 08:13:57;;;;;;;30.27;16.50;;;8.60;99.90;;;;;;6221924;23;20028;-82
2022/03/16 08:16:23;;;;;;;27.65;16.40;;;9.00;99.90;;;;;;6195468;23;20025;-83
2022/03/16 08:18:49;;;;;;;30.38;17.38;;;9.40;99.90;;;;;;6220709;23;20027;-76
2022/03/16 08:21:14;;;;;;;39.97;21.77;;;9.60;99.90;;;;;;6222471;23;20462;-82
2022/03/16 08:23:40;;;;;;;32.15;17.17;;;9.90;99.90;;;;;;6224666;23;20032;-82
2022/03/16 08:26:05;;;;;;;26.85;16.35;;;10.00;99.90;;;;;;6227923;23;20055;-82
2022/03/16 08:28:31;;;;;;;30.15;17.23;;;10.20;99.90;;;;;;6229643;23;20040;-82
2022/03/16 08:30:58;;;;;;;29.90;16.10;;;10.10;99.90;;;;;;6222806;23;20017;-82
2022/03/16 08:33:23;;;;;;;29.33;15.77;;;10.00;99.90;;;;;;6222774;23;20021;-81
2022/03/16 08:35:50;;;;;;;31.27;16.98;;;10.10;99.90;;;;;;6225087;23;20073;-82
2022/03/16 08:38:16;;;;;;;27.98;16.60;;;10.10;99.90;;;;;;6189184;23;20067;-82
2022/03/16 08:40:41;;;;;;;28.20;15.98;;;10.00;99.90;;;;;;6226595;23;20028;-83
2022/03/16 08:43:08;;;;;;;29.63;15.32;;;10.00;99.90;;;;;;6227440;23;20012;-83
2022/03/16 08:45:33;;;;;;;27.90;14.70;;;10.10;99.90;;;;;;6227763;23;20012;-83
2022/03/16 08:47:59;;;;;;;32.92;16.58;;;10.10;99.90;;;;;;6200960;23;20072;-83
2022/03/16 08:50:25;;;;;;;24.75;14.52;;;10.20;99.90;;;;;;6222632;23;20012;-79
2022/03/16 08:52:51;;;;;;;26.35;14.95;;;10.30;99.90;;;;;;6211777;23;20009;-84
2022/03/16 08:57:52;;;;;;;40.22;21.08;;;10.40;99.90;;;;;;6222489;22;20028;-79
2022/03/16 09:00:18;;;;;;;27.08;15.15;;;10.60;99.90;;;;;;6217577;23;20104;-78
2022/03/16 09:02:45;;;;;;;26.88;15.35;;;11.00;99.90;;;;;;6220427;23;20009;-79
2022/03/16 09:05:12;;;;;;;27.98;15.88;;;11.40;99.90;;;;;;6217221;23;20012;-79
2022/03/16 09:07:38;;;;;;;24.58;14.40;;;11.70;99.90;;;;;;6217766;23;20012;-79
2022/03/16 09:10:06;;;;;;;27.75;15.15;;;11.80;99.90;;;;;;6219271;23;20013;-80
2022/03/16 09:12:31;;;;;;;25.98;14.10;;;11.90;99.90;;;;;;6222532;23;20017;-81
2022/03/16 09:18:09;;;;;;;25.33;13.85;;;12.10;99.90;;;;;;6220138;23;20021;-81
2022/03/16 09:21:02;;;;;;;23.53;13.37;;;12.30;99.90;;;;;;6219408;23;20481;-82
2022/03/16 09:23:31;;;;;;;27.75;13.27;;;12.60;99.90;;;;;;6219058;23;20020;-79
2022/03/16 09:26:00;;;;;;;30.65;12.27;;;12.80;99.90;;;;;;6220943;23;20083;-80
2022/03/16 09:28:26;;;;;;;21.75;12.10;;;12.80;99.90;;;;;;6221308;23;20013;-79
2022/03/16 09:30:58;;;;;;;22.85;12.00;;;12.80;99.90;;;;;;6221449;23;20354;-83
2022/03/16 09:33:24;;;;;;;21.08;11.52;;;12.70;99.90;;;;;;6217368;23;20025;-80
2022/03/16 09:35:51;;;;;;;21.80;11.73;;;12.70;99.90;;;;;;6216474;23;20092;-83
2022/03/16 09:38:20;;;;;;;23.98;12.07;;;12.80;99.90;;;;;;6213875;23;20407;-83
2022/03/16 09:40:52;;;;;;;21.55;12.38;;;12.80;99.90;;;;;;6212935;23;20116;-83
2022/03/16 09:43:19;;;;;;;21.88;12.30;;;13.10;99.90;;;;;;6193216;23;20015;-82
2022/03/16 09:45:55;;;;;;;19.50;11.43;;;13.50;99.90;;;;;;6216785;23;20446;-82
2022/03/16 09:48:23;;;;;;;21.60;10.95;;;13.90;99.90;;;;;;6214075;23;20008;-83
2022/03/16 09:50:53;;;;;;;20.70;11.75;;;14.20;99.90;;;;;;6187226;23;20484;-82
2022/03/16 09:53:20;;;;;;;20.73;11.98;;;14.60;99.90;;;;;;6187125;23;20063;-84
2022/03/16 09:55:46;;;;;;;21.65;11.43;;;14.90;99.90;;;;;;6189206;23;20024;-84
2022/03/16 09:58:12;;;;;;;20.88;10.45;;;14.90;99.90;;;;;;6212779;23;20009;-85
2022/03/16 10:00:38;;;;;;;17.58;10.82;;;14.90;99.90;;;;;;6220371;23;20017;-83
2022/03/16 10:03:04;;;;;;;16.15;10.23;;;14.80;99.90;;;;;;6220189;23;20016;-84
2022/03/16 10:13:13;;;;;;;15.98;9.70;;;14.40;99.90;;;;;;6214330;23;20043;-84
2022/03/16 10:14:27;;;;;;;17.42;8.88;;;14.00;99.90;;;;;;6211796;23;20075;-83
2022/03/16 10:19:54;;;;;;;19.85;9.15;;;13.70;99.90;;;;;;6190398;23;20017;-82
2022/03/16 10:22:31;;;;;;;17.77;9.50;;;13.40;99.90;;;;;;6192826;23;20080;-83
2022/03/16 10:25:14;;;;;;;22.98;10.13;;;13.30;99.90;;;;;;6185705;23;20017;-83
2022/03/16 10:27:40;;;;;;;17.05;9.40;;;13.20;99.90;;;;;;6189366;23;20016;-81
2022/03/16 10:30:55;;;;;;;21.83;10.02;;;13.20;99.90;;;;;;6190544;23;20013;-81
2022/03/16 10:33:36;;;;;;;17.30;9.60;;;13.30;99.90;;;;;;6187319;23;20031;-82
2022/03/16 10:36:03;;;;;;;16.60;9.38;;;13.20;99.90;;;;;;6186467;23;20108;-79
2022/03/16 10:38:37;;;;;;;17.80;9.55;;;13.20;99.90;;;;;;6186705;23;20013;-81
2022/03/16 10:41:14;;;;;;;18.17;8.85;;;13.30;99.90;;;;;;6187053;23;20071;-81
2022/03/16 10:46:40;;;;;;;16.83;9.88;;;13.50;99.90;;;;;;6191424;23;20024;-81
2022/03/16 10:49:12;;;;;;;13.95;8.38;;;13.50;99.90;;;;;;6191916;23;20092;-81
2022/03/16 10:51:38;;;;;;;12.98;8.45;;;13.50;99.90;;;;;;6195786;23;20060;-82
2022/03/16 10:54:05;;;;;;;22.00;8.52;;;13.60;99.90;;;;;;6167388;23;20020;-82
2022/03/16 10:56:31;;;;;;;18.50;9.18;;;13.70;99.90;;;;;;6164953;23;20017;-81
2022/03/16 10:58:58;;;;;;;16.65;9.18;;;13.70;99.90;;;;;;6188562;23;20092;-82
2022/03/16 11:01:28;;;;;;;17.05;8.13;;;13.80;99.90;;;;;;6188294;23;20013;-81
2022/03/16 11:03:58;;;;;;;15.05;9.02;;;13.80;99.90;;;;;;6188224;23;20474;-81
2022/03/16 11:06:24;;;;;;;15.65;8.88;;;13.90;99.90;;;;;;6188999;23;20143;-81
2022/03/16 11:08:50;;;;;;;17.10;7.75;;;13.90;99.90;;;;;;6188603;23;20009;-82
2022/03/16 11:14:04;;;;;;;16.33;8.75;;;13.80;99.90;;;;;;6186261;23;20027;-81
2022/03/16 11:16:31;;;;;;;14.60;8.40;;;13.90;99.90;;;;;;6190878;23;20009;-82
2022/03/16 11:19:03;;;;;;;16.60;8.23;;;13.90;99.90;;;;;;6190739;23;20017;-82
2022/03/16 11:21:36;;;;;;;13.98;8.18;;;14.00;99.90;;;;;;6186309;23;20092;-82
2022/03/16 11:24:18;;;;;;;19.17;9.15;;;14.10;99.90;;;;;;6192470;23;20453;-82
2022/03/16 11:26:56;;;;;;;16.58;8.45;;;14.10;99.90;;;;;;6191185;23;20012;-82
2022/03/16 11:30:25;;;;;;;18.27;9.43;;;14.10;99.90;;;;;;6164053;23;20526;-81
2022/03/16 11:33:00;;;;;;;18.38;8.50;;;14.10;99.90;;;;;;6073890;23;20035;-81
2022/03/16 11:35:32;;;;;;;16.98;9.57;;;14.00;99.90;;;;;;6071172;23;20022;-82
2022/03/16 11:38:09;;;;;;;15.30;8.80;;;14.00;99.90;;;;;;6161448;23;20013;-82
2022/03/16 11:40:38;;;;;;;16.35;8.15;;;14.00;99.90;;;;;;6163904;23;20020;-81
2022/03/16 11:43:04;;;;;;;17.85;8.63;;;14.00;99.90;;;;;;6161404;23;20005;-81
2022/03/16 11:45:35;;;;;;;16.52;8.10;;;14.00;99.90;;;;;;6162323;23;20060;-81
2022/03/16 11:48:33;;;;;;;17.65;8.93;;;14.10;99.90;;;;;;6163196;23;20021;-81
2022/03/16 11:51:13;;;;;;;16.08;8.05;;;14.20;99.90;;;;;;6164049;23;20061;-81
2022/03/16 11:53:50;;;;;;;15.38;8.27;;;14.20;99.90;;;;;;6163725;23;20020;-81
2022/03/16 11:56:21;;;;;;;18.73;8.02;;;14.30;99.90;;;;;;6162492;23;20067;-82
2022/03/16 11:58:48;;;;;;;15.98;8.20;;;14.30;99.90;;;;;;6186800;23;20021;-81
2022/03/16 12:01:29;;;;;;;16.73;7.85;;;14.40;99.90;;;;;;6160571;23;20434;-82
2022/03/16 12:04:12;;;;;;;16.67;8.27;;;14.40;99.90;;;;;;6162074;23;20362;-82
2022/03/16 12:07:03;;;;;;;17.52;8.65;;;14.50;99.90;;;;;;6186886;23;20021;-82
2022/03/16 12:09:49;;;;;;;16.92;9.27;;;14.70;99.90;;;;;;6185316;23;20083;-81
2022/03/16 12:15:39;;;;;;;14.63;8.35;;;14.70;99.90;;;;;;6184908;23;20083;-82
2022/03/16 12:18:11;;;;;;;13.45;7.80;;;14.80;99.90;;;;;;6160862;23;20066;-83
2022/03/16 12:20:56;;;;;;;20.33;9.93;;;14.90;99.90;;;;;;6160404;23;20020;-84
2022/03/16 12:23:45;;;;;;;15.93;8.20;;;15.00;99.90;;;;;;6185057;23;20024;-82
2022/03/16 12:26:11;;;;;;;14.90;8.40;;;15.00;99.90;;;;;;6160347;23;20469;-82
2022/03/16 12:31:21;;;;;;;17.15;8.52;;;15.00;99.90;;;;;;6186727;23;20083;-81
2022/03/16 12:33:48;;;;;;;16.23;8.68;;;15.00;99.90;;;;;;6187906;23;20103;-83
2022/03/16 12:36:16;;;;;;;15.68;7.93;;;15.00;99.90;;;;;;6191320;23;20017;-83
2022/03/16 12:38:45;;;;;;;14.68;8.65;;;14.90;99.90;;;;;;6189741;23;20021;-82
2022/03/16 12:43:58;;;;;;;13.05;7.53;;;15.00;99.90;;;;;;6187038;23;20048;-81
2022/03/16 12:46:32;;;;;;;13.80;7.75;;;15.10;99.90;;;;;;6161504;23;20414;-82
2022/03/16 12:49:03;;;;;;;19.40;9.00;;;15.10;94.90;;;;;;6188803;23;20013;-80
2022/03/16 12:51:34;;;;;;;18.23;8.70;;;15.20;99.90;;;;;;6189681;23;20346;-80
2022/03/16 12:54:00;;;;;;;17.00;8.80;;;15.30;99.90;;;;;;6161517;23;20056;-81
2022/03/16 12:56:26;;;;;;;13.82;8.20;;;15.30;99.90;;;;;;6165138;23;20024;-81
2022/03/16 12:58:53;;;;;;;16.83;9.02;;;15.30;99.90;;;;;;6187506;23;20017;-81
2022/03/16 13:01:20;;;;;;;15.23;8.52;;;15.10;99.90;;;;;;6188079;23;20016;-82
2022/03/16 13:03:46;;;;;;;15.02;7.93;;;15.10;99.90;;;;;;6186965;23;20044;-82
2022/03/16 13:06:20;;;;;;;16.73;9.13;;;15.00;99.90;;;;;;6192645;23;20363;-81
2022/03/16 13:08:52;;;;;;;12.55;7.97;;;15.10;97.70;;;;;;6186908;23;20017;-81